createdAt,value
2022-11-05T00:02:02.949Z,33.63
2022-11-05T00:04:48.438Z,36.57
2022-11-05T00:07:35.002Z,29.37
2022-11-05T00:10:03.598Z,31.60
2022-11-05T00:12:49.511Z,38.53
2022-11-05T00:15:36.108Z,28.83
2022-11-05T00:18:03.941Z,43.27
2022-11-05T00:20:31.521Z,30.90
2022-11-05T00:23:25.180Z,31.67
2022-11-05T00:25:56.457Z,35.03
2022-11-05T00:28:24.223Z,33.60
2022-11-05T00:30:53.111Z,32.83
2022-11-05T00:33:20.898Z,31.50
2022-11-05T00:35:48.434Z,36.63
2022-11-05T00:38:15.948Z,29.00
2022-11-05T00:40:43.875Z,34.20
2022-11-05T00:43:29.016Z,31.23
2022-11-05T00:45:58.128Z,31.17
2022-11-05T00:48:43.298Z,30.37
2022-11-05T00:51:11.081Z,26.50
2022-11-05T00:53:38.561Z,30.70
2022-11-05T00:56:06.176Z,30.20
2022-11-05T00:58:33.796Z,27.70
2022-11-05T01:01:03.029Z,30.10
2022-11-05T01:03:31.510Z,29.57
2022-11-05T01:06:00.438Z,36.60
2022-11-05T01:08:28.400Z,26.63
2022-11-05T01:10:56.974Z,27.73
2022-11-05T01:13:26.245Z,33.70
2022-11-05T01:15:54.049Z,31.13
2022-11-05T01:18:23.740Z,26.77
2022-11-05T01:20:51.970Z,33.23
2022-11-05T01:23:19.892Z,33.30
2022-11-05T01:25:47.859Z,28.90
2022-11-05T01:28:15.869Z,32.57
2022-11-05T01:30:43.473Z,30.10
2022-11-05T01:33:11.411Z,27.97
2022-11-05T01:35:41.458Z,29.33
2022-11-05T01:38:09.058Z,28.30
2022-11-05T01:40:36.565Z,28.80
2022-11-05T01:43:04.213Z,31.83
2022-11-05T01:45:31.736Z,26.80
2022-11-05T01:48:01.187Z,31.90
2022-11-05T01:50:34.658Z,27.00
2022-11-05T01:53:06.763Z,29.43
2022-11-05T01:55:36.424Z,29.60
2022-11-05T01:58:06.697Z,26.67
2022-11-05T02:00:34.422Z,28.57
2022-11-05T02:03:02.671Z,28.83
2022-11-05T02:05:30.612Z,30.47
2022-11-05T02:07:58.098Z,31.80
2022-11-05T02:10:27.463Z,33.23
2022-11-05T02:12:54.980Z,29.13
2022-11-05T02:15:28.727Z,30.47
2022-11-05T02:18:00.938Z,30.27
2022-11-05T02:20:33.316Z,29.20
2022-11-05T02:23:19.670Z,28.50
2022-11-05T02:25:59.438Z,35.33
2022-11-05T02:28:38.058Z,33.17
2022-11-05T02:31:13.065Z,31.83
2022-11-05T02:33:42.696Z,38.10
2022-11-05T02:36:20.064Z,36.03
2022-11-05T02:38:50.994Z,34.20
2022-11-05T02:41:23.172Z,38.93
2022-11-05T02:43:58.862Z,40.10
2022-11-05T02:46:35.244Z,32.40
2022-11-05T02:49:07.604Z,29.83
2022-11-05T02:51:37.099Z,36.33
2022-11-05T02:54:10.386Z,31.77
2022-11-05T02:56:41.150Z,34.40
2022-11-05T02:59:08.742Z,31.27
2022-11-05T03:01:38.481Z,32.70
2022-11-05T03:04:08.486Z,32.57
2022-11-05T03:06:42.763Z,37.50
2022-11-05T03:09:23.509Z,40.53
2022-11-05T03:11:56.636Z,31.97
2022-11-05T03:14:26.217Z,41.47
2022-11-05T03:16:58.524Z,41.47
2022-11-05T03:19:31.040Z,42.20
2022-11-05T03:22:01.749Z,37.07
2022-11-05T03:24:31.937Z,32.67
2022-11-05T03:27:01.699Z,37.47
2022-11-05T03:29:31.220Z,33.57
2022-11-05T03:34:59.697Z,38.27
2022-11-05T03:37:30.913Z,27.40
2022-11-05T03:40:00.380Z,31.53
2022-11-05T03:42:30.752Z,28.23
2022-11-05T03:44:59.744Z,36.07
2022-11-05T03:47:30.131Z,30.37
2022-11-05T03:49:59.862Z,24.17
2022-11-05T03:52:30.116Z,28.30
2022-11-05T03:54:58.012Z,31.13
2022-11-05T03:57:27.156Z,38.97
2022-11-05T03:59:54.996Z,32.03
2022-11-05T04:02:23.683Z,33.53
2022-11-05T04:04:53.224Z,30.80
2022-11-05T04:07:38.817Z,27.37
2022-11-05T04:10:30.059Z,28.63
2022-11-05T04:13:15.568Z,28.53
2022-11-05T04:15:57.033Z,39.47
2022-11-05T04:18:25.025Z,30.10
2022-11-05T04:21:11.339Z,35.83
2022-11-05T04:23:56.785Z,35.83
2022-11-05T04:26:24.325Z,31.10
2022-11-05T04:29:09.771Z,37.33
2022-11-05T04:31:37.411Z,30.90
2022-11-05T04:34:04.988Z,30.77
2022-11-05T04:36:33.980Z,33.60
2022-11-05T04:39:01.749Z,30.83
2022-11-05T04:41:29.253Z,31.30
2022-11-05T04:43:57.054Z,33.90
2022-11-05T04:46:24.660Z,27.80
2022-11-05T04:48:52.145Z,29.73
2022-11-05T04:51:20.546Z,34.43
2022-11-05T04:53:49.334Z,30.30
2022-11-05T04:56:19.337Z,32.23
2022-11-05T04:58:47.193Z,30.70
2022-11-05T05:01:15.647Z,29.47
2022-11-05T05:03:43.525Z,30.20
2022-11-05T05:06:11.300Z,34.10
2022-11-05T05:08:39.023Z,27.00
2022-11-05T05:11:08.721Z,30.20
2022-11-05T05:13:36.824Z,31.60
2022-11-05T05:16:06.167Z,35.50
2022-11-05T05:18:33.896Z,28.47
2022-11-05T05:21:18.858Z,29.77
2022-11-05T05:23:47.765Z,24.73
2022-11-05T05:26:16.658Z,30.97
2022-11-05T05:28:44.418Z,31.07
2022-11-05T05:31:11.868Z,41.60
2022-11-05T05:33:39.649Z,33.67
2022-11-05T05:36:11.353Z,29.17
2022-11-05T05:38:40.083Z,30.90
2022-11-05T05:41:09.615Z,26.10
2022-11-05T05:43:38.640Z,26.57
2022-11-05T05:46:07.365Z,31.47
2022-11-05T05:48:35.226Z,29.10
2022-11-05T05:51:03.190Z,34.40
2022-11-05T05:53:30.738Z,27.97
2022-11-05T05:55:58.676Z,31.70
2022-11-05T05:58:27.669Z,29.90
2022-11-05T06:00:57.119Z,34.07
2022-11-05T06:03:24.789Z,36.80
2022-11-05T06:05:52.683Z,23.57
2022-11-05T06:08:20.369Z,34.13
2022-11-05T06:10:51.252Z,26.70
2022-11-05T06:13:18.938Z,32.53
2022-11-05T06:15:46.436Z,25.83
2022-11-05T06:18:15.548Z,31.17
2022-11-05T06:20:43.368Z,27.83
2022-11-05T06:23:11.216Z,27.10
2022-11-05T06:25:41.391Z,25.97
2022-11-05T06:28:09.509Z,36.53
2022-11-05T06:30:36.973Z,26.27
2022-11-05T06:33:05.041Z,30.63
2022-11-05T06:35:34.032Z,31.80
2022-11-05T06:38:01.929Z,31.37
2022-11-05T06:40:29.761Z,32.77
2022-11-05T06:42:57.769Z,32.03
2022-11-05T06:45:25.273Z,29.37
2022-11-05T06:47:56.316Z,24.90
2022-11-05T06:50:24.200Z,30.97
2022-11-05T06:52:56.613Z,22.67
2022-11-05T06:55:24.823Z,24.60
2022-11-05T06:57:52.319Z,23.23
2022-11-05T07:00:20.001Z,26.10
2022-11-05T07:02:47.580Z,26.83
2022-11-05T07:05:16.745Z,23.27
2022-11-05T07:07:44.811Z,28.10
2022-11-05T07:10:15.619Z,31.93
2022-11-05T07:12:43.189Z,30.50
2022-11-05T07:15:11.351Z,26.80
2022-11-05T07:17:39.503Z,28.23
2022-11-05T07:20:07.669Z,27.97
2022-11-05T07:22:35.638Z,31.50
2022-11-05T07:25:03.360Z,35.10
2022-11-05T07:27:32.245Z,32.10
2022-11-05T07:29:59.789Z,25.03
2022-11-05T07:32:27.910Z,35.93
2022-11-05T07:34:55.348Z,24.33
2022-11-05T07:37:23.156Z,31.73
2022-11-05T07:39:51.329Z,28.30
2022-11-05T07:42:18.898Z,32.67
2022-11-05T07:44:48.161Z,27.53
2022-11-05T07:47:15.657Z,32.47
2022-11-05T07:49:43.137Z,33.07
2022-11-05T07:52:10.969Z,30.80
2022-11-05T07:54:38.630Z,24.33
2022-11-05T07:57:06.396Z,38.43
2022-11-05T07:59:33.862Z,38.27
2022-11-05T08:02:03.332Z,28.03
2022-11-05T08:04:31.357Z,27.00
2022-11-05T08:06:59.061Z,32.70
2022-11-05T08:09:26.682Z,40.23
2022-11-05T08:11:58.544Z,27.17
2022-11-05T08:14:30.648Z,26.57
2022-11-05T08:16:58.219Z,29.83
2022-11-05T08:19:27.270Z,35.07
2022-11-05T08:21:54.927Z,35.73
2022-11-05T08:24:22.433Z,33.37
2022-11-05T08:26:49.928Z,30.40
2022-11-05T08:29:17.751Z,28.87
2022-11-05T08:31:45.233Z,34.17
2022-11-05T08:34:12.909Z,32.00
2022-11-05T08:36:43.302Z,30.40
2022-11-05T08:39:16.695Z,28.40
2022-11-05T08:41:44.975Z,30.07
2022-11-05T08:44:12.494Z,27.70
2022-11-05T08:46:41.750Z,35.53
2022-11-05T08:49:09.975Z,28.30
2022-11-05T08:51:37.491Z,33.37
2022-11-05T08:54:06.657Z,33.10
2022-11-05T08:56:34.520Z,29.97
2022-11-05T08:59:02.004Z,27.87
2022-11-05T09:01:30.505Z,36.80
2022-11-05T09:03:58.928Z,54.37
2022-11-05T09:06:26.560Z,33.57
2022-11-05T09:08:54.048Z,34.70
2022-11-05T09:11:33.057Z,29.33
2022-11-05T09:14:10.750Z,32.93
2022-11-05T09:16:38.398Z,40.07
2022-11-05T09:19:05.900Z,29.40
2022-11-05T09:21:34.556Z,22.50
2022-11-05T09:24:03.159Z,28.70
2022-11-05T09:26:32.002Z,34.93
2022-11-05T09:29:00.376Z,23.10
2022-11-05T09:31:27.904Z,21.83
2022-11-05T09:33:55.543Z,25.97
2022-11-05T09:36:23.036Z,113.37
2022-11-05T09:39:12.314Z,47.77
2022-11-05T09:41:43.543Z,28.40
2022-11-05T09:44:14.313Z,25.90
2022-11-05T09:46:44.615Z,27.43
2022-11-05T09:49:16.174Z,23.17
2022-11-05T09:51:43.931Z,30.03
2022-11-05T09:54:13.000Z,20.57
2022-11-05T09:56:42.559Z,23.77
2022-11-05T09:59:15.252Z,17.77
2022-11-05T10:01:44.573Z,15.53
2022-11-05T10:04:15.838Z,18.67
2022-11-05T10:06:47.292Z,18.53
2022-11-05T10:09:21.128Z,25.20
2022-11-05T10:11:52.873Z,20.53
2022-11-05T10:14:22.429Z,15.07
2022-11-05T10:16:53.861Z,13.53
2022-11-05T10:19:24.477Z,19.87
2022-11-05T10:22:11.237Z,13.80
2022-11-05T10:24:41.756Z,22.97
2022-11-05T10:27:14.637Z,16.07
2022-11-05T10:29:43.742Z,29.43
2022-11-05T10:32:13.394Z,17.03
2022-11-05T10:34:41.216Z,21.57
2022-11-05T10:37:09.651Z,23.17
2022-11-05T10:39:37.366Z,15.50
2022-11-05T10:42:17.280Z,16.03
2022-11-05T10:44:48.807Z,10.37
2022-11-05T10:47:30.475Z,18.00
2022-11-05T10:49:59.369Z,17.37
2022-11-05T10:52:28.119Z,22.73
2022-11-05T10:54:57.876Z,21.60
2022-11-05T10:57:31.121Z,20.10
2022-11-05T11:00:28.321Z,13.53
2022-11-05T11:02:57.639Z,14.00
2022-11-05T11:05:28.236Z,11.00
2022-11-05T11:08:07.591Z,11.07
2022-11-05T11:10:37.986Z,15.27
2022-11-05T11:13:07.577Z,14.97
2022-11-05T11:15:37.213Z,15.60
2022-11-05T11:18:23.787Z,12.73
2022-11-05T11:20:51.769Z,14.67
2022-11-05T11:23:19.517Z,13.53
2022-11-05T11:25:48.442Z,9.17
2022-11-05T11:28:20.983Z,12.23
2022-11-05T11:30:50.781Z,11.83
2022-11-05T11:33:22.448Z,13.33
2022-11-05T11:35:50.166Z,16.67
2022-11-05T11:38:18.540Z,13.33
2022-11-05T11:40:46.872Z,15.20
2022-11-05T11:43:18.446Z,15.10
2022-11-05T11:45:50.130Z,22.33
2022-11-05T11:48:18.352Z,22.40
2022-11-05T11:50:46.895Z,21.23
2022-11-05T11:53:19.035Z,21.60
2022-11-05T11:56:01.490Z,9.90
2022-11-05T11:58:37.073Z,17.03
2022-11-05T12:01:11.434Z,14.37
2022-11-05T12:03:42.591Z,10.53
2022-11-05T12:06:13.881Z,12.97
2022-11-05T12:08:45.759Z,13.33
2022-11-05T12:11:17.293Z,9.77
2022-11-05T12:13:59.465Z,18.57
2022-11-05T12:16:35.409Z,11.10
2022-11-05T12:19:07.787Z,11.90
2022-11-05T12:21:52.680Z,12.47
2022-11-05T12:24:51.437Z,12.93
2022-11-05T12:27:25.157Z,11.83
2022-11-05T12:29:58.727Z,6.63
2022-11-05T12:32:34.023Z,10.30
2022-11-05T12:35:06.556Z,9.33
2022-11-05T12:37:36.572Z,13.10
2022-11-05T12:40:18.090Z,7.93
2022-11-05T12:42:55.916Z,7.37
2022-11-05T12:45:33.813Z,8.93
2022-11-05T12:48:08.237Z,17.57
2022-11-05T12:50:41.025Z,6.90
2022-11-05T12:53:17.538Z,9.80
2022-11-05T12:55:48.742Z,10.90
2022-11-05T12:58:19.528Z,13.23
2022-11-05T13:00:48.753Z,8.23
2022-11-05T13:03:21.235Z,15.33
2022-11-05T13:05:51.108Z,16.13
2022-11-05T13:08:20.569Z,7.07
2022-11-05T13:10:52.377Z,11.60
2022-11-05T13:13:24.091Z,14.73
2022-11-05T13:15:53.700Z,12.77
2022-11-05T13:18:24.755Z,12.27
2022-11-05T13:20:54.340Z,10.63
2022-11-05T13:23:32.096Z,8.37
2022-11-05T13:26:01.576Z,12.47
2022-11-05T13:28:33.740Z,14.80
2022-11-05T13:31:03.552Z,13.67
2022-11-05T13:33:55.347Z,17.53
2022-11-05T13:36:43.055Z,12.83
2022-11-05T13:39:15.052Z,10.17
2022-11-05T13:42:02.243Z,9.00
2022-11-05T13:44:44.680Z,10.37
2022-11-05T13:47:23.877Z,11.83
2022-11-05T13:50:12.554Z,10.13
2022-11-05T13:52:50.899Z,9.97
2022-11-05T13:55:37.351Z,9.33
2022-11-05T13:58:22.379Z,9.87
2022-11-05T14:00:58.337Z,12.27
2022-11-05T14:03:27.020Z,16.77
2022-11-05T14:05:55.530Z,11.20
2022-11-05T14:08:27.707Z,8.77
2022-11-05T14:10:59.927Z,11.40
2022-11-05T14:16:20.224Z,18.00
2022-11-05T14:18:49.539Z,11.20
2022-11-05T14:21:30.801Z,7.70
2022-11-05T14:24:01.333Z,14.63
2022-11-05T14:26:29.704Z,7.63
2022-11-05T14:29:22.516Z,13.30
2022-11-05T14:32:08.885Z,14.93
2022-11-05T14:34:45.044Z,13.90
2022-11-05T14:37:29.146Z,10.77
2022-11-05T14:40:01.606Z,9.60
2022-11-05T14:42:30.402Z,7.77
2022-11-05T14:45:03.482Z,12.23
2022-11-05T14:47:32.688Z,18.27
2022-11-05T14:50:02.420Z,9.93
2022-11-05T14:52:30.973Z,16.83
2022-11-05T14:54:59.848Z,8.10
2022-11-05T14:57:47.430Z,12.53
2022-11-05T15:00:29.892Z,14.70
2022-11-05T15:02:58.238Z,8.60
2022-11-05T15:05:39.325Z,12.63
2022-11-05T15:08:29.028Z,14.80
2022-11-05T15:11:03.309Z,15.23
2022-11-05T15:13:32.450Z,12.30
2022-11-05T15:16:00.577Z,21.10
2022-11-05T15:18:30.381Z,12.37
2022-11-05T15:20:59.609Z,12.90
2022-11-05T15:23:30.512Z,16.27
2022-11-05T15:26:03.541Z,13.07
2022-11-05T15:28:35.095Z,13.10
2022-11-05T15:31:05.138Z,11.63
2022-11-05T15:33:33.041Z,10.37
2022-11-05T15:36:10.068Z,15.10
2022-11-05T15:38:51.961Z,13.50
2022-11-05T15:41:34.628Z,12.53
2022-11-05T15:44:02.701Z,13.93
2022-11-05T15:46:31.219Z,16.50
2022-11-05T15:49:00.218Z,10.87
2022-11-05T15:51:27.960Z,12.30
2022-11-05T15:54:23.729Z,10.77
2022-11-05T15:56:49.125Z,15.07
2022-11-05T15:59:17.344Z,23.33
2022-11-05T16:01:47.428Z,14.80
2022-11-05T16:04:16.975Z,17.30
2022-11-05T16:06:45.971Z,18.93
2022-11-05T16:09:24.104Z,18.63
2022-11-05T16:12:12.053Z,15.53
2022-11-05T16:14:39.732Z,18.73
2022-11-05T16:17:19.393Z,17.63
2022-11-05T16:19:48.445Z,14.50
2022-11-05T16:22:16.040Z,17.40
2022-11-05T16:24:44.157Z,25.23
2022-11-05T16:27:19.391Z,19.83
2022-11-05T16:29:52.141Z,22.47
2022-11-05T16:32:25.449Z,22.33
2022-11-05T16:34:58.528Z,17.30
2022-11-05T16:37:27.370Z,16.77
2022-11-05T16:39:54.958Z,15.57
2022-11-05T16:42:40.551Z,25.37
2022-11-05T16:45:10.444Z,18.83
2022-11-05T16:47:38.181Z,26.33
2022-11-05T16:50:11.384Z,26.50
2022-11-05T16:52:38.923Z,19.63
2022-11-05T16:55:06.522Z,21.50
2022-11-05T16:57:34.600Z,18.73
2022-11-05T17:00:03.640Z,18.87
2022-11-05T17:02:31.641Z,25.90
2022-11-05T17:04:59.491Z,19.13
2022-11-05T17:07:27.234Z,38.90
2022-11-05T17:09:55.906Z,24.93
2022-11-05T17:12:23.912Z,27.13
2022-11-05T17:14:51.528Z,13.50
2022-11-05T17:17:20.633Z,19.43
2022-11-05T17:19:48.196Z,31.00
2022-11-05T17:22:15.869Z,20.43
2022-11-05T17:24:43.368Z,21.13
2022-11-05T17:27:11.173Z,18.00
2022-11-05T17:29:38.636Z,24.30
2022-11-05T17:32:06.423Z,16.53
2022-11-05T17:34:35.579Z,19.53
2022-11-05T17:37:03.236Z,23.03
2022-11-05T17:39:32.008Z,23.53
2022-11-05T17:42:00.017Z,26.07
2022-11-05T17:44:27.501Z,30.60
2022-11-05T17:46:55.188Z,21.97
2022-11-05T17:49:22.790Z,27.27
2022-11-05T17:51:51.936Z,26.57
2022-11-05T17:54:19.434Z,22.10
2022-11-05T17:56:46.977Z,22.20
2022-11-05T17:59:15.090Z,25.50
2022-11-05T18:01:43.759Z,24.27
2022-11-05T18:04:12.070Z,27.53
2022-11-05T18:06:39.994Z,31.07
2022-11-05T18:09:09.791Z,24.30
2022-11-05T18:11:38.153Z,20.73
2022-11-05T18:14:05.638Z,32.67
2022-11-05T18:16:33.434Z,21.37
2022-11-05T18:19:01.430Z,35.07
2022-11-05T18:21:29.023Z,24.73
2022-11-05T18:23:56.677Z,30.93
2022-11-05T18:26:27.334Z,27.67
2022-11-05T18:28:54.943Z,41.17
2022-11-05T18:31:22.685Z,25.97
2022-11-05T18:33:50.864Z,24.30
2022-11-05T18:36:18.677Z,24.13
2022-11-05T18:38:46.475Z,24.47
2022-11-05T18:41:14.186Z,27.03
2022-11-05T18:43:43.294Z,26.40
2022-11-05T18:46:29.317Z,24.03
2022-11-05T18:48:59.122Z,26.60
2022-11-05T18:51:26.880Z,28.17
2022-11-05T18:53:54.532Z,25.97
2022-11-05T18:56:22.263Z,21.20
2022-11-05T18:59:03.319Z,24.70
2022-11-05T19:01:39.750Z,24.00
2022-11-05T19:04:07.386Z,25.90
2022-11-05T19:06:35.309Z,25.00
2022-11-05T19:09:03.415Z,21.60
2022-11-05T19:11:31.377Z,28.03
2022-11-05T19:14:00.279Z,30.73
2022-11-05T19:16:28.930Z,29.43
2022-11-05T19:18:58.899Z,30.40
2022-11-05T19:21:27.109Z,28.10
2022-11-05T19:23:55.486Z,33.23
2022-11-05T19:26:28.361Z,27.63
2022-11-05T19:28:58.118Z,23.40
2022-11-05T19:31:27.474Z,29.73
2022-11-05T19:33:55.609Z,25.93
2022-11-05T19:36:23.996Z,25.30
2022-11-05T19:38:54.734Z,30.50
2022-11-05T19:41:22.792Z,34.10
2022-11-05T19:43:50.673Z,32.50
2022-11-05T19:46:19.345Z,30.23
2022-11-05T19:48:48.305Z,26.87
2022-11-05T19:51:16.980Z,32.73
2022-11-05T19:53:44.626Z,36.73
2022-11-05T19:56:13.255Z,33.07
2022-11-05T19:58:41.474Z,25.03
2022-11-05T20:01:09.508Z,29.53
2022-11-05T20:03:38.073Z,27.30
2022-11-05T20:06:08.855Z,33.00
2022-11-05T20:08:47.843Z,26.47
2022-11-05T20:11:24.464Z,29.03
2022-11-05T20:13:52.165Z,34.00
2022-11-05T20:16:21.038Z,37.77
2022-11-05T20:18:48.736Z,27.97
2022-11-05T20:21:17.815Z,30.37
2022-11-05T20:23:45.819Z,35.40
2022-11-05T20:26:13.416Z,26.03
2022-11-05T20:28:42.565Z,26.93
2022-11-05T20:31:10.998Z,22.50
2022-11-05T20:33:38.960Z,24.20
2022-11-05T20:36:08.297Z,22.53
2022-11-05T20:38:41.591Z,28.07
2022-11-05T20:41:09.366Z,22.00
2022-11-05T20:43:36.889Z,31.23
2022-11-05T20:46:04.917Z,27.50
2022-11-05T20:48:33.315Z,27.93
2022-11-05T20:51:05.029Z,31.23
2022-11-05T20:53:33.537Z,24.73
2022-11-05T20:56:07.599Z,25.07
2022-11-05T20:58:36.303Z,35.90
2022-11-05T21:01:04.695Z,28.87
2022-11-05T21:03:34.283Z,23.67
2022-11-05T21:06:04.825Z,19.83
2022-11-05T21:08:32.683Z,24.40
2022-11-05T21:11:01.674Z,26.30
2022-11-05T21:13:29.525Z,21.33
2022-11-05T21:15:57.887Z,21.00
2022-11-05T21:18:27.011Z,22.80
2022-11-05T21:20:55.204Z,23.17
2022-11-05T21:23:22.772Z,21.90
2022-11-05T21:25:50.331Z,22.93
2022-11-05T21:28:19.588Z,22.40
2022-11-05T21:30:49.032Z,19.97
2022-11-05T21:33:17.629Z,22.40
2022-11-05T21:35:45.843Z,18.63
2022-11-05T21:38:14.395Z,25.77
2022-11-05T21:40:42.447Z,24.50
2022-11-05T21:43:10.356Z,23.13
2022-11-05T21:45:40.072Z,21.83
2022-11-05T21:48:07.723Z,19.30
2022-11-05T21:50:53.370Z,26.07
2022-11-05T21:53:38.687Z,28.63
2022-11-05T21:56:24.701Z,19.73
2022-11-05T21:59:10.179Z,23.10
2022-11-05T22:01:39.642Z,25.07
2022-11-05T22:04:07.282Z,24.77
2022-11-05T22:06:35.228Z,24.53
2022-11-05T22:09:02.695Z,30.70
2022-11-05T22:11:30.429Z,19.37
2022-11-05T22:13:58.194Z,23.00
2022-11-05T22:16:25.966Z,24.10
2022-11-05T22:18:56.827Z,23.77
2022-11-05T22:21:24.885Z,23.63
2022-11-05T22:23:52.426Z,20.70
2022-11-05T22:26:20.277Z,19.00
2022-11-05T22:28:47.879Z,23.13
2022-11-05T22:31:15.764Z,18.33
2022-11-05T22:33:43.245Z,20.87
2022-11-05T22:36:14.250Z,25.90
2022-11-05T22:38:42.221Z,26.43
2022-11-05T22:41:09.774Z,25.17
2022-11-05T22:43:38.203Z,18.43
2022-11-05T22:46:06.799Z,27.80
2022-11-05T22:48:35.747Z,22.43
2022-11-05T22:51:04.345Z,16.37
2022-11-05T22:53:33.721Z,28.30
2022-11-05T22:56:02.922Z,19.00
2022-11-05T22:58:30.741Z,26.97
2022-11-05T23:00:58.699Z,25.60
2022-11-05T23:03:26.560Z,22.60
2022-11-05T23:05:57.510Z,26.50
2022-11-05T23:08:42.472Z,24.33
2022-11-05T23:11:33.159Z,24.20
2022-11-05T23:14:01.254Z,18.07
2022-11-05T23:16:48.163Z,21.67
2022-11-05T23:19:33.795Z,16.30
2022-11-05T23:22:18.921Z,14.83
2022-11-05T23:24:47.874Z,25.03
2022-11-05T23:27:16.705Z,24.33
2022-11-05T23:29:44.589Z,22.33
2022-11-05T23:32:28.362Z,25.07
2022-11-05T23:34:58.097Z,24.80
2022-11-05T23:37:44.202Z,22.53
2022-11-05T23:40:14.948Z,24.63
2022-11-05T23:43:02.084Z,19.10
2022-11-05T23:45:48.348Z,19.80
2022-11-05T23:48:19.503Z,23.07
2022-11-05T23:50:49.115Z,22.10
2022-11-05T23:53:16.980Z,27.23
2022-11-05T23:55:44.659Z,20.27
2022-11-05T23:58:14.167Z,21.03
